sensor_id;sensor_type;location;lat;lon;timestamp;pressure;altitude;pressure_sealevel;temperature;humidity
8039;BME280;4062;49.844;8.120;2022-11-15T00:00:30;98950.66;;;15.30;59.94
8039;BME280;4062;49.844;8.120;2022-11-15T00:02:31;98950.66;;;15.30;60.17
8039;BME280;4062;49.844;8.120;2022-11-15T00:04:32;98943.59;;;15.29;60.13
8039;BME280;4062;49.844;8.120;2022-11-15T00:06:33;98948.91;;;15.29;59.92
8039;BME280;4062;49.844;8.120;2022-11-15T00:08:33;98949.78;;;15.29;59.86
8039;BME280;4062;49.844;8.120;2022-11-15T00:10:34;98950.66;;;15.30;59.93
8039;BME280;4062;49.844;8.120;2022-11-15T00:12:35;98949.78;;;15.29;59.95
8039;BME280;4062;49.844;8.120;2022-11-15T00:14:35;98940.84;;;15.30;59.95
8039;BME280;4062;49.844;8.120;2022-11-15T00:16:36;98928.47;;;15.29;60.18
8039;BME280;4062;49.844;8.120;2022-11-15T00:18:38;98930.19;;;15.30;60.09
8039;BME280;4062;49.844;8.120;2022-11-15T00:20:39;98923.25;;;15.28;59.97
8039;BME280;4062;49.844;8.120;2022-11-15T00:22:40;98928.56;;;15.28;59.97
8039;BME280;4062;49.844;8.120;2022-11-15T00:24:40;98922.31;;;15.29;59.99
8039;BME280;4062;49.844;8.120;2022-11-15T00:26:41;98925.91;;;15.28;59.93
8039;BME280;4062;49.844;8.120;2022-11-15T00:28:42;98924.97;;;15.29;60.01
8039;BME280;4062;49.844;8.120;2022-11-15T00:30:43;98932.06;;;15.28;60.05
8039;BME280;4062;49.844;8.120;2022-11-15T00:32:43;98921.38;;;15.30;59.98
8039;BME280;4062;49.844;8.120;2022-11-15T00:34:44;98929.34;;;15.30;59.94
8039;BME280;4062;49.844;8.120;2022-11-15T00:36:45;98929.41;;;15.28;60.05
8039;BME280;4062;49.844;8.120;2022-11-15T00:38:45;98927.63;;;15.29;60.04
8039;BME280;4062;49.844;8.120;2022-11-15T00:40:46;98924.97;;;15.29;60.11
8039;BME280;4062;49.844;8.120;2022-11-15T00:42:47;98922.31;;;15.29;59.94
8039;BME280;4062;49.844;8.120;2022-11-15T00:44:47;98924.09;;;15.28;59.80
8039;BME280;4062;49.844;8.120;2022-11-15T00:46:48;98923.16;;;15.29;59.86
8039;BME280;4062;49.844;8.120;2022-11-15T00:48:49;98929.34;;;15.30;60.05
8039;BME280;4062;49.844;8.120;2022-11-15T00:50:50;98927.63;;;15.29;59.96
8039;BME280;4062;49.844;8.120;2022-11-15T00:52:51;98926.75;;;15.28;60.05
8039;BME280;4062;49.844;8.120;2022-11-15T00:54:54;98924.19;;;15.27;59.96
8039;BME280;4062;49.844;8.120;2022-11-15T00:56:54;98923.25;;;15.28;59.97
8039;BME280;4062;49.844;8.120;2022-11-15T00:58:55;98922.31;;;15.29;59.82
8039;BME280;4062;49.844;8.120;2022-11-15T01:00:56;98918.78;;;15.28;59.97
8039;BME280;4062;49.844;8.120;2022-11-15T01:02:57;98904.63;;;15.28;59.96
8039;BME280;4062;49.844;8.120;2022-11-15T01:04:57;98902.88;;;15.27;60.09
8039;BME280;4062;49.844;8.120;2022-11-15T01:06:58;98908.13;;;15.28;60.02
8039;BME280;4062;49.844;8.120;2022-11-15T01:08:59;98908.13;;;15.28;59.99
8039;BME280;4062;49.844;8.120;2022-11-15T01:11:06;98918.78;;;15.28;59.86
8039;BME280;4062;49.844;8.120;2022-11-15T01:13:07;98908.13;;;15.28;60.01
8039;BME280;4062;49.844;8.120;2022-11-15T01:15:08;98907.19;;;15.29;60.00
8039;BME280;4062;49.844;8.120;2022-11-15T01:17:09;98908.13;;;15.28;59.83
8039;BME280;4062;49.844;8.120;2022-11-15T01:19:10;98908.22;;;15.27;60.17
8039;BME280;4062;49.844;8.120;2022-11-15T01:21:16;98910.78;;;15.28;60.01
8039;BME280;4062;49.844;8.120;2022-11-15T01:23:17;98908.13;;;15.28;59.97
8039;BME280;4062;49.844;8.120;2022-11-15T01:25:18;98916.97;;;15.29;59.94
8039;BME280;4062;49.844;8.120;2022-11-15T01:27:18;98900.22;;;15.27;59.99
8039;BME280;4062;49.844;8.120;2022-11-15T01:29:19;98905.47;;;15.28;60.01
8039;BME280;4062;49.844;8.120;2022-11-15T01:31:21;98906.44;;;15.27;59.86
8039;BME280;4062;49.844;8.120;2022-11-15T01:33:21;98901.94;;;15.28;59.80
8039;BME280;4062;49.844;8.120;2022-11-15T01:35:22;98905.47;;;15.28;60.13
8039;BME280;4062;49.844;8.120;2022-11-15T01:37:23;98900.13;;;15.28;59.93
8039;BME280;4062;49.844;8.120;2022-11-15T01:39:24;98900.13;;;15.28;59.99
8039;BME280;4062;49.844;8.120;2022-11-15T01:41:31;98895.69;;;15.29;59.91
8039;BME280;4062;49.844;8.120;2022-11-15T01:43:35;98891.31;;;15.28;59.99
8039;BME280;4062;49.844;8.120;2022-11-15T01:45:36;98892.25;;;15.27;60.00
8039;BME280;4062;49.844;8.120;2022-11-15T01:47:40;98885.97;;;15.28;59.75
8039;BME280;4062;49.844;8.120;2022-11-15T01:49:57;98884.25;;;15.27;60.01
8039;BME280;4062;49.844;8.120;2022-11-15T01:52:05;98879.88;;;15.26;60.08
8039;BME280;4062;49.844;8.120;2022-11-15T01:54:11;98873.63;;;15.27;60.04
8039;BME280;4062;49.844;8.120;2022-11-15T01:56:23;98868.28;;;15.27;60.02
8039;BME280;4062;49.844;8.120;2022-11-15T01:58:25;98867.44;;;15.26;59.87
8039;BME280;4062;49.844;8.120;2022-11-15T02:00:26;98867.44;;;15.26;59.97
8039;BME280;4062;49.844;8.120;2022-11-15T02:02:27;98869.16;;;15.27;59.95
8039;BME280;4062;49.844;8.120;2022-11-15T02:04:32;98864.78;;;15.26;59.82
8039;BME280;4062;49.844;8.120;2022-11-15T02:06:34;98863.91;;;15.26;60.02
8039;BME280;4062;49.844;8.120;2022-11-15T02:08:36;98862.88;;;15.28;60.09
8039;BME280;4062;49.844;8.120;2022-11-15T02:10:36;98849.66;;;15.27;59.76
8039;BME280;4062;49.844;8.120;2022-11-15T02:12:37;98854.97;;;15.27;59.96
8039;BME280;4062;49.844;8.120;2022-11-15T02:14:41;98851.47;;;15.26;59.82
8039;BME280;4062;49.844;8.120;2022-11-15T02:30:52;98832.75;;;15.28;60.00
8039;BME280;4062;49.844;8.120;2022-11-15T02:33:14;98834.63;;;15.26;60.07
8039;BME280;4062;49.844;8.120;2022-11-15T02:35:30;98835.50;;;15.26;59.89
8039;BME280;4062;49.844;8.120;2022-11-15T02:37:57;98831.97;;;15.26;60.01
8039;BME280;4062;49.844;8.120;2022-11-15T02:42:36;98832.84;;;15.26;59.75
8039;BME280;4062;49.844;8.120;2022-11-15T02:45:04;98829.31;;;15.26;59.85
8039;BME280;4062;49.844;8.120;2022-11-15T02:47:11;98832.84;;;15.26;59.94
8039;BME280;4062;49.844;8.120;2022-11-15T02:49:14;98830.19;;;15.26;60.05
8039;BME280;4062;49.844;8.120;2022-11-15T02:51:16;98825.81;;;15.25;59.95
8039;BME280;4062;49.844;8.120;2022-11-15T02:53:17;98823.13;;;15.25;59.91
8039;BME280;4062;49.844;8.120;2022-11-15T02:55:35;98821.31;;;15.26;59.97
8039;BME280;4062;49.844;8.120;2022-11-15T03:00:10;98820.47;;;15.25;59.96
8039;BME280;4062;49.844;8.120;2022-11-15T03:02:36;98824.91;;;15.25;59.82
8039;BME280;4062;49.844;8.120;2022-11-15T03:07:18;98825.81;;;15.25;59.93
8039;BME280;4062;49.844;8.120;2022-11-15T03:09:35;98828.47;;;15.25;59.89
8039;BME280;4062;49.844;8.120;2022-11-15T03:11:46;98817.81;;;15.25;59.86
8039;BME280;4062;49.844;8.120;2022-11-15T03:14:32;98814.22;;;15.26;60.00
8039;BME280;4062;49.844;8.120;2022-11-15T03:18:54;98821.31;;;15.26;59.85
8039;BME280;4062;49.844;8.120;2022-11-15T03:21:00;98822.19;;;15.26;60.03
8039;BME280;4062;49.844;8.120;2022-11-15T03:23:10;98822.19;;;15.26;60.10
8039;BME280;4062;49.844;8.120;2022-11-15T03:25:17;98821.31;;;15.26;59.96
8039;BME280;4062;49.844;8.120;2022-11-15T03:27:23;98816.94;;;15.25;59.88
8039;BME280;4062;49.844;8.120;2022-11-15T03:29:39;98819.59;;;15.25;60.23
8039;BME280;4062;49.844;8.120;2022-11-15T03:31:47;98820.47;;;15.25;60.02
8039;BME280;4062;49.844;8.120;2022-11-15T03:33:51;98824.06;;;15.24;59.97
8039;BME280;4062;49.844;8.120;2022-11-15T03:35:54;98817.81;;;15.25;59.96
8039;BME280;4062;49.844;8.120;2022-11-15T03:38:09;98817.81;;;15.25;60.06
8039;BME280;4062;49.844;8.120;2022-11-15T03:40:12;98823.97;;;15.26;59.79
8039;BME280;4062;49.844;8.120;2022-11-15T03:42:36;98825.81;;;15.25;59.83
8039;BME280;4062;49.844;8.120;2022-11-15T03:49:19;98817.81;;;15.25;59.68
8039;BME280;4062;49.844;8.120;2022-11-15T03:51:22;98822.25;;;15.25;59.77
8039;BME280;4062;49.844;8.120;2022-11-15T03:53:23;98825.81;;;15.25;59.82
8039;BME280;4062;49.844;8.120;2022-11-15T03:55:24;98825.81;;;15.25;59.96
8039;BME280;4062;49.844;8.120;2022-11-15T03:57:25;98830.25;;;15.25;59.84
8039;BME280;4062;49.844;8.120;2022-11-15T03:59:25;98828.47;;;15.25;59.99
8039;BME280;4062;49.844;8.120;2022-11-15T04:01:26;98824.91;;;15.25;59.86
8039;BME280;4062;49.844;8.120;2022-11-15T04:03:27;98821.41;;;15.24;59.89
8039;BME280;4062;49.844;8.120;2022-11-15T04:05:28;98829.31;;;15.26;60.02
8039;BME280;4062;49.844;8.120;2022-11-15T04:07:28;98833.78;;;15.25;59.89
8039;BME280;4062;49.844;8.120;2022-11-15T04:09:29;98833.00;;;15.23;60.16
8039;BME280;4062;49.844;8.120;2022-11-15T04:11:30;98831.19;;;15.24;60.05
8039;BME280;4062;49.844;8.120;2022-11-15T04:13:30;98829.41;;;15.24;59.91
8039;BME280;4062;49.844;8.120;2022-11-15T04:15:31;98832.06;;;15.24;59.92
8039;BME280;4062;49.844;8.120;2022-11-15T04:17:54;98826.72;;;15.24;59.90
8039;BME280;4062;49.844;8.120;2022-11-15T04:19:55;98828.47;;;15.25;59.92
8039;BME280;4062;49.844;8.120;2022-11-15T04:22:14;98831.13;;;15.25;59.93
8039;BME280;4062;49.844;8.120;2022-11-15T04:24:34;98832.06;;;15.24;59.99
8039;BME280;4062;49.844;8.120;2022-11-15T04:26:34;98827.59;;;15.25;59.93
8039;BME280;4062;49.844;8.120;2022-11-15T04:28:35;98826.72;;;15.24;59.98
8039;BME280;4062;49.844;8.120;2022-11-15T04:30:56;98824.91;;;15.25;59.99
8039;BME280;4062;49.844;8.120;2022-11-15T04:32:57;98815.22;;;15.24;59.99
8039;BME280;4062;49.844;8.120;2022-11-15T04:34:58;98819.69;;;15.23;60.09
8039;BME280;4062;49.844;8.120;2022-11-15T04:36:59;98815.22;;;15.24;59.88
8039;BME280;4062;49.844;8.120;2022-11-15T04:39:16;98823.13;;;15.25;59.86
8039;BME280;4062;49.844;8.120;2022-11-15T04:41:17;98813.44;;;15.24;59.91
8039;BME280;4062;49.844;8.120;2022-11-15T04:43:17;98814.28;;;15.25;59.99
8039;BME280;4062;49.844;8.120;2022-11-15T04:45:18;98808.94;;;15.25;59.71
8039;BME280;4062;49.844;8.120;2022-11-15T04:47:19;98815.22;;;15.24;59.88
8039;BME280;4062;49.844;8.120;2022-11-15T04:49:20;98808.94;;;15.25;59.91
8039;BME280;4062;49.844;8.120;2022-11-15T04:51:21;98803.63;;;15.25;59.84
8039;BME280;4062;49.844;8.120;2022-11-15T04:53:21;98792.13;;;15.24;59.84
8039;BME280;4062;49.844;8.120;2022-11-15T04:55:22;98792.13;;;15.24;59.85
8039;BME280;4062;49.844;8.120;2022-11-15T04:57:23;98782.34;;;15.25;59.97
8039;BME280;4062;49.844;8.120;2022-11-15T04:59:23;98780.63;;;15.24;60.02
8039;BME280;4062;49.844;8.120;2022-11-15T05:01:24;98773.50;;;15.24;59.92
8039;BME280;4062;49.844;8.120;2022-11-15T05:03:25;98774.34;;;15.25;59.99
8039;BME280;4062;49.844;8.120;2022-11-15T05:05:44;98772.56;;;15.25;59.92
8039;BME280;4062;49.844;8.120;2022-11-15T05:07:45;98776.19;;;15.24;59.76
8039;BME280;4062;49.844;8.120;2022-11-15T05:09:45;98770.84;;;15.24;59.88
8039;BME280;4062;49.844;8.120;2022-11-15T05:11:46;98775.28;;;15.24;59.88
8039;BME280;4062;49.844;8.120;2022-11-15T05:13:47;98764.66;;;15.24;60.05
8039;BME280;4062;49.844;8.120;2022-11-15T05:15:48;98762.00;;;15.24;59.97
8039;BME280;4062;49.844;8.120;2022-11-15T05:17:48;98765.53;;;15.24;59.95
8039;BME280;4062;49.844;8.120;2022-11-15T05:19:49;98763.81;;;15.23;60.00
8039;BME280;4062;49.844;8.120;2022-11-15T05:21:50;98771.69;;;15.25;60.06
8039;BME280;4062;49.844;8.120;2022-11-15T05:23:50;98762.00;;;15.24;60.02
8039;BME280;4062;49.844;8.120;2022-11-15T05:25:51;98767.31;;;15.24;59.91
8039;BME280;4062;49.844;8.120;2022-11-15T05:27:52;98770.94;;;15.23;59.91
8039;BME280;4062;49.844;8.120;2022-11-15T05:29:52;98776.19;;;15.24;59.97
8039;BME280;4062;49.844;8.120;2022-11-15T05:31:53;98773.50;;;15.24;60.04
8039;BME280;4062;49.844;8.120;2022-11-15T05:33:55;98780.63;;;15.24;60.00
8039;BME280;4062;49.844;8.120;2022-11-15T05:36:05;98785.09;;;15.23;60.03
8039;BME280;4062;49.844;8.120;2022-11-15T05:38:08;98785.94;;;15.24;60.17
8039;BME280;4062;49.844;8.120;2022-11-15T05:40:09;98779.78;;;15.23;60.03
8039;BME280;4062;49.844;8.120;2022-11-15T05:42:12;98782.34;;;15.25;59.83
8039;BME280;4062;49.844;8.120;2022-11-15T05:44:16;98780.63;;;15.24;60.04
8039;BME280;4062;49.844;8.120;2022-11-15T05:46:18;98770.84;;;15.24;60.05
8039;BME280;4062;49.844;8.120;2022-11-15T05:48:19;98767.31;;;15.24;60.06
8039;BME280;4062;49.844;8.120;2022-11-15T05:50:20;98769.13;;;15.23;59.99
8039;BME280;4062;49.844;8.120;2022-11-15T05:52:25;98773.59;;;15.23;60.01
8039;BME280;4062;49.844;8.120;2022-11-15T05:54:29;98769.03;;;15.25;59.98
8039;BME280;4062;49.844;8.120;2022-11-15T05:56:31;98777.03;;;15.25;59.95
8039;BME280;4062;49.844;8.120;2022-11-15T05:58:33;98776.28;;;15.23;59.94
8039;BME280;4062;49.844;8.120;2022-11-15T06:00:33;98777.97;;;15.24;59.99
8039;BME280;4062;49.844;8.120;2022-11-15T06:02:34;98776.19;;;15.24;59.96
8039;BME280;4062;49.844;8.120;2022-11-15T06:04:35;98774.44;;;15.23;60.04
8039;BME280;4062;49.844;8.120;2022-11-15T06:06:36;98769.97;;;15.24;59.73
8039;BME280;4062;49.844;8.120;2022-11-15T06:08:37;98774.44;;;15.23;59.98
8039;BME280;4062;49.844;8.120;2022-11-15T06:10:37;98777.09;;;15.23;59.94
8039;BME280;4062;49.844;8.120;2022-11-15T06:12:38;98769.97;;;15.24;59.98
8039;BME280;4062;49.844;8.120;2022-11-15T06:14:39;98769.97;;;15.24;59.98
8039;BME280;4062;49.844;8.120;2022-11-15T06:16:40;98771.78;;;15.23;59.94
8039;BME280;4062;49.844;8.120;2022-11-15T06:18:41;98775.28;;;15.24;59.95
8039;BME280;4062;49.844;8.120;2022-11-15T06:20:41;98769.13;;;15.23;60.07
8039;BME280;4062;49.844;8.120;2022-11-15T06:22:42;98773.59;;;15.23;59.85
8039;BME280;4062;49.844;8.120;2022-11-15T06:24:43;98777.09;;;15.23;60.06
8039;BME280;4062;49.844;8.120;2022-11-15T06:26:44;98774.44;;;15.23;59.99
8039;BME280;4062;49.844;8.120;2022-11-15T06:28:45;98776.19;;;15.24;60.05
8039;BME280;4062;49.844;8.120;2022-11-15T06:30:45;98779.69;;;15.25;59.88
8039;BME280;4062;49.844;8.120;2022-11-15T06:32:46;98781.50;;;15.24;59.91
8039;BME280;4062;49.844;8.120;2022-11-15T06:34:47;98776.19;;;15.24;60.04
8039;BME280;4062;49.844;8.120;2022-11-15T06:36:48;98785.09;;;15.23;59.99
8039;BME280;4062;49.844;8.120;2022-11-15T06:38:48;98777.97;;;15.24;60.04
8039;BME280;4062;49.844;8.120;2022-11-15T06:40:49;98775.28;;;15.24;59.86
8039;BME280;4062;49.844;8.120;2022-11-15T06:42:50;98777.97;;;15.24;60.12
8039;BME280;4062;49.844;8.120;2022-11-15T06:44:50;98775.28;;;15.24;59.92
8039;BME280;4062;49.844;8.120;2022-11-15T06:46:51;98777.09;;;15.23;59.99
8039;BME280;4062;49.844;8.120;2022-11-15T06:48:52;98774.34;;;15.25;59.78
8039;BME280;4062;49.844;8.120;2022-11-15T06:50:56;98770.84;;;15.24;59.88
8039;BME280;4062;49.844;8.120;2022-11-15T06:53:02;98781.50;;;15.24;60.01
8039;BME280;4062;49.844;8.120;2022-11-15T06:55:04;98780.63;;;15.24;60.04
8039;BME280;4062;49.844;8.120;2022-11-15T06:57:05;98780.63;;;15.24;60.00
8039;BME280;4062;49.844;8.120;2022-11-15T06:59:05;98787.75;;;15.23;59.94
8039;BME280;4062;49.844;8.120;2022-11-15T07:01:09;98782.34;;;15.25;59.93
8039;BME280;4062;49.844;8.120;2022-11-15T07:03:11;98785.09;;;15.23;59.87
8039;BME280;4062;49.844;8.120;2022-11-15T07:05:13;98785.09;;;15.23;60.09
8039;BME280;4062;49.844;8.120;2022-11-15T07:07:14;98775.28;;;15.24;60.08
8039;BME280;4062;49.844;8.120;2022-11-15T07:09:15;98785.09;;;15.23;59.93
8039;BME280;4062;49.844;8.120;2022-11-15T07:11:15;98782.44;;;15.23;59.99
8039;BME280;4062;49.844;8.120;2022-11-15T07:13:16;98782.44;;;15.23;59.94
8039;BME280;4062;49.844;8.120;2022-11-15T07:15:19;98776.28;;;15.23;59.90
8039;BME280;4062;49.844;8.120;2022-11-15T07:17:20;98784.25;;;15.23;59.92
8039;BME280;4062;49.844;8.120;2022-11-15T07:19:20;98790.31;;;15.25;60.06
8039;BME280;4062;49.844;8.120;2022-11-15T07:21:21;98792.03;;;15.26;59.94
8039;BME280;4062;49.844;8.120;2022-11-15T07:23:22;98797.47;;;15.24;60.16
8039;BME280;4062;49.844;8.120;2022-11-15T07:25:22;98798.31;;;15.25;59.97
8039;BME280;4062;49.844;8.120;2022-11-15T07:27:23;98794.81;;;15.24;60.03
8039;BME280;4062;49.844;8.120;2022-11-15T07:29:24;98791.25;;;15.24;60.09
8039;BME280;4062;49.844;8.120;2022-11-15T07:31:24;98797.47;;;15.24;60.18
8039;BME280;4062;49.844;8.120;2022-11-15T07:33:25;98793.94;;;15.24;60.13
8039;BME280;4062;49.844;8.120;2022-11-15T07:35:28;98793.00;;;15.25;60.04
8039;BME280;4062;49.844;8.120;2022-11-15T07:37:28;98799.19;;;15.25;60.10
8039;BME280;4062;49.844;8.120;2022-11-15T07:39:29;98800.97;;;15.25;60.18
8039;BME280;4062;49.844;8.120;2022-11-15T07:41:30;98790.31;;;15.25;60.18
8039;BME280;4062;49.844;8.120;2022-11-15T07:43:31;98785.94;;;15.24;60.28
8039;BME280;4062;49.844;8.120;2022-11-15T07:45:39;98780.63;;;15.24;60.16
8039;BME280;4062;49.844;8.120;2022-11-15T07:47:40;98792.13;;;15.24;60.01
8039;BME280;4062;49.844;8.120;2022-11-15T07:49:41;98793.94;;;15.24;60.17
8039;BME280;4062;49.844;8.120;2022-11-15T07:51:41;98783.28;;;15.24;59.97
8039;BME280;4062;49.844;8.120;2022-11-15T07:53:43;98788.59;;;15.24;59.95
8039;BME280;4062;49.844;8.120;2022-11-15T07:55:44;98783.28;;;15.24;60.03
8039;BME280;4062;49.844;8.120;2022-11-15T07:57:44;98782.34;;;15.25;60.09
8039;BME280;4062;49.844;8.120;2022-11-15T07:59:45;98785.00;;;15.25;59.97
8039;BME280;4062;49.844;8.120;2022-11-15T08:01:46;98778.94;;;15.23;60.10
8039;BME280;4062;49.844;8.120;2022-11-15T08:03:47;98779.78;;;15.23;59.98
8039;BME280;4062;49.844;8.120;2022-11-15T08:05:51;98783.28;;;15.24;60.00
8039;BME280;4062;49.844;8.120;2022-11-15T08:07:51;98786.81;;;15.24;60.09
8039;BME280;4062;49.844;8.120;2022-11-15T08:09:52;98783.28;;;15.24;60.06
8039;BME280;4062;49.844;8.120;2022-11-15T08:11:53;98786.81;;;15.24;60.12
8039;BME280;4062;49.844;8.120;2022-11-15T08:13:53;98791.25;;;15.24;60.10
8039;BME280;4062;49.844;8.120;2022-11-15T08:16:02;98784.25;;;15.23;60.03
8039;BME280;4062;49.844;8.120;2022-11-15T08:18:08;98779.78;;;15.23;59.92
8039;BME280;4062;49.844;8.120;2022-11-15T08:20:09;98785.94;;;15.24;60.13
8039;BME280;4062;49.844;8.120;2022-11-15T08:22:10;98792.13;;;15.24;59.95
8039;BME280;4062;49.844;8.120;2022-11-15T08:24:11;98788.59;;;15.24;59.98
8039;BME280;4062;49.844;8.120;2022-11-15T08:26:12;98781.50;;;15.24;60.05
8039;BME280;4062;49.844;8.120;2022-11-15T08:28:12;98772.63;;;15.24;60.24
8039;BME280;4062;49.844;8.120;2022-11-15T08:30:13;98777.03;;;15.25;60.04
8039;BME280;4062;49.844;8.120;2022-11-15T08:32:16;98784.16;;;15.24;60.03
8039;BME280;4062;49.844;8.120;2022-11-15T08:34:18;98777.97;;;15.24;59.95
8039;BME280;4062;49.844;8.120;2022-11-15T08:36:18;98776.19;;;15.24;59.97
8039;BME280;4062;49.844;8.120;2022-11-15T08:38:19;98776.28;;;15.23;60.19
8039;BME280;4062;49.844;8.120;2022-11-15T08:40:20;98777.09;;;15.23;60.14
8039;BME280;4062;49.844;8.120;2022-11-15T08:42:21;98781.50;;;15.24;60.04
8039;BME280;4062;49.844;8.120;2022-11-15T08:44:22;98782.44;;;15.23;60.10
8039;BME280;4062;49.844;8.120;2022-11-15T08:46:24;98785.09;;;15.23;59.94
8039;BME280;4062;49.844;8.120;2022-11-15T08:48:25;98774.44;;;15.23;59.97
8039;BME280;4062;49.844;8.120;2022-11-15T08:50:26;98780.63;;;15.24;60.09
8039;BME280;4062;49.844;8.120;2022-11-15T08:52:27;98777.09;;;15.23;60.03
8039;BME280;4062;49.844;8.120;2022-11-15T08:54:27;98777.09;;;15.23;59.97
8039;BME280;4062;49.844;8.120;2022-11-15T08:56:28;98770.94;;;15.23;59.77
8039;BME280;4062;49.844;8.120;2022-11-15T08:58:29;98766.47;;;15.23;60.14
8039;BME280;4062;49.844;8.120;2022-11-15T09:00:30;98768.28;;;15.23;60.21
8039;BME280;4062;49.844;8.120;2022-11-15T09:02:30;98765.63;;;15.23;60.00
8039;BME280;4062;49.844;8.120;2022-11-15T09:04:31;98765.63;;;15.23;60.04
8039;BME280;4062;49.844;8.120;2022-11-15T09:06:32;98763.81;;;15.23;59.96
8039;BME280;4062;49.844;8.120;2022-11-15T09:08:33;98766.47;;;15.23;60.20
8039;BME280;4062;49.844;8.120;2022-11-15T09:10:34;98763.81;;;15.23;59.87
8039;BME280;4062;49.844;8.120;2022-11-15T09:12:35;98761.16;;;15.23;60.07
8039;BME280;4062;49.844;8.120;2022-11-15T09:14:35;98762.09;;;15.22;59.97
8039;BME280;4062;49.844;8.120;2022-11-15T09:16:36;98754.09;;;15.22;59.87
8039;BME280;4062;49.844;8.120;2022-11-15T09:18:37;98754.97;;;15.23;59.94
8039;BME280;4062;49.844;8.120;2022-11-15T09:20:38;98755.81;;;15.23;60.00
8039;BME280;4062;49.844;8.120;2022-11-15T09:22:39;98755.81;;;15.23;60.09
8039;BME280;4062;49.844;8.120;2022-11-15T09:24:39;98753.16;;;15.23;60.00
8039;BME280;4062;49.844;8.120;2022-11-15T09:26:40;98756.66;;;15.24;59.99
8039;BME280;4062;49.844;8.120;2022-11-15T09:28:41;98745.19;;;15.23;60.04
8039;BME280;4062;49.844;8.120;2022-11-15T09:30:42;98747.84;;;15.23;59.96
8039;BME280;4062;49.844;8.120;2022-11-15T09:32:43;98748.69;;;15.24;60.11
8039;BME280;4062;49.844;8.120;2022-11-15T09:34:43;98747.84;;;15.23;59.87
8039;BME280;4062;49.844;8.120;2022-11-15T09:36:44;98745.19;;;15.23;60.09
8039;BME280;4062;49.844;8.120;2022-11-15T09:38:45;98747.00;;;15.23;60.04
8039;BME280;4062;49.844;8.120;2022-11-15T09:40:53;98746.13;;;15.22;59.93
8039;BME280;4062;49.844;8.120;2022-11-15T09:46:43;98746.13;;;15.22;59.98
8039;BME280;4062;49.844;8.120;2022-11-15T09:48:57;98740.78;;;15.22;59.90
8039;BME280;4062;49.844;8.120;2022-11-15T09:50:59;98746.13;;;15.22;60.14
8039;BME280;4062;49.844;8.120;2022-11-15T09:53:00;98740.78;;;15.22;59.85
8039;BME280;4062;49.844;8.120;2022-11-15T09:55:01;98748.69;;;15.24;59.86
8039;BME280;4062;49.844;8.120;2022-11-15T09:57:17;98745.09;;;15.25;59.85
8039;BME280;4062;49.844;8.120;2022-11-15T10:04:42;98745.19;;;15.23;59.99
8039;BME280;4062;49.844;8.120;2022-11-15T10:07:10;98747.84;;;15.23;59.86
8039;BME280;4062;49.844;8.120;2022-11-15T10:09:18;98747.00;;;15.23;60.17
8039;BME280;4062;49.844;8.120;2022-11-15T10:11:24;98746.13;;;15.22;60.00
8039;BME280;4062;49.844;8.120;2022-11-15T10:13:30;98739.00;;;15.23;59.96
8039;BME280;4062;49.844;8.120;2022-11-15T10:15:35;98745.19;;;15.23;59.89
8039;BME280;4062;49.844;8.120;2022-11-15T10:18:17;98741.66;;;15.23;60.16
8039;BME280;4062;49.844;8.120;2022-11-15T10:20:27;98739.00;;;15.23;60.01
8039;BME280;4062;49.844;8.120;2022-11-15T10:22:51;98736.34;;;15.23;59.92
8039;BME280;4062;49.844;8.120;2022-11-15T10:27:14;98732.72;;;15.24;60.15
8039;BME280;4062;49.844;8.120;2022-11-15T10:29:23;98726.56;;;15.23;60.11
8039;BME280;4062;49.844;8.120;2022-11-15T10:31:28;98715.06;;;15.23;59.96
8039;BME280;4062;49.844;8.120;2022-11-15T10:33:38;98721.22;;;15.23;59.87
8039;BME280;4062;49.844;8.120;2022-11-15T10:35:39;98714.09;;;15.24;59.86
8039;BME280;4062;49.844;8.120;2022-11-15T10:37:40;98714.09;;;15.24;59.97
8039;BME280;4062;49.844;8.120;2022-11-15T10:39:40;98701.75;;;15.23;59.86
8039;BME280;4062;49.844;8.120;2022-11-15T10:41:42;98696.44;;;15.23;60.11
8039;BME280;4062;49.844;8.120;2022-11-15T10:43:43;98693.78;;;15.23;60.09
8039;BME280;4062;49.844;8.120;2022-11-15T10:45:45;98694.63;;;15.23;60.06
8039;BME280;4062;49.844;8.120;2022-11-15T10:47:46;98692.81;;;15.24;59.96
8039;BME280;4062;49.844;8.120;2022-11-15T10:50:30;98684.91;;;15.22;59.87
8039;BME280;4062;49.844;8.120;2022-11-15T10:52:35;98673.31;;;15.23;59.97
8039;BME280;4062;49.844;8.120;2022-11-15T10:54:42;98664.50;;;15.23;60.11
8039;BME280;4062;49.844;8.120;2022-11-15T10:56:50;98661.84;;;15.23;60.12
8039;BME280;4062;49.844;8.120;2022-11-15T10:58:56;98657.34;;;15.23;59.83
8039;BME280;4062;49.844;8.120;2022-11-15T11:01:14;98650.31;;;15.22;59.87
8039;BME280;4062;49.844;8.120;2022-11-15T11:03:35;98642.34;;;15.22;59.87
8039;BME280;4062;49.844;8.120;2022-11-15T11:05:40;98637.00;;;15.22;59.96
8039;BME280;4062;49.844;8.120;2022-11-15T11:07:40;98628.19;;;15.22;60.26
8039;BME280;4062;49.844;8.120;2022-11-15T11:09:41;98628.19;;;15.22;60.01
8039;BME280;4062;49.844;8.120;2022-11-15T11:11:51;98634.34;;;15.22;60.06
8039;BME280;4062;49.844;8.120;2022-11-15T11:13:52;98620.19;;;15.22;60.08
8039;BME280;4062;49.844;8.120;2022-11-15T11:18:32;98618.38;;;15.22;59.97
8039;BME280;4062;49.844;8.120;2022-11-15T11:20:41;98621.91;;;15.23;59.93
8039;BME280;4062;49.844;8.120;2022-11-15T11:23:32;98628.09;;;15.23;60.03
8039;BME280;4062;49.844;8.120;2022-11-15T11:26:13;98622.78;;;15.23;59.96
8039;BME280;4062;49.844;8.120;2022-11-15T11:31:35;98616.59;;;15.23;59.85
8039;BME280;4062;49.844;8.120;2022-11-15T11:34:26;98610.41;;;15.22;59.93
8039;BME280;4062;49.844;8.120;2022-11-15T11:37:35;98612.13;;;15.23;59.94
8039;BME280;4062;49.844;8.120;2022-11-15T11:46:57;98624.59;;;15.23;60.06
8039;BME280;4062;49.844;8.120;2022-11-15T11:49:14;98612.97;;;15.24;60.09
8039;BME280;4062;49.844;8.120;2022-11-15T11:51:43;98608.63;;;15.23;60.12
8039;BME280;4062;49.844;8.120;2022-11-15T11:54:11;98601.47;;;15.23;59.96
8039;BME280;4062;49.844;8.120;2022-11-15T11:56:35;98604.22;;;15.22;59.87
8039;BME280;4062;49.844;8.120;2022-11-15T11:58:41;98597.97;;;15.23;60.01
8039;BME280;4062;49.844;8.120;2022-11-15T12:00:56;98600.63;;;15.23;59.63
8039;BME280;4062;49.844;8.120;2022-11-15T12:05:30;98587.34;;;15.23;59.98
8039;BME280;4062;49.844;8.120;2022-11-15T12:07:34;98590.06;;;15.21;60.00
8039;BME280;4062;49.844;8.120;2022-11-15T12:10:19;98583.78;;;15.22;59.92
8039;BME280;4062;49.844;8.120;2022-11-15T12:14:56;98579.34;;;15.23;60.11
8039;BME280;4062;49.844;8.120;2022-11-15T12:16:59;98575.81;;;15.22;59.92